createdAt,value
2023-12-18T00:01:02.790Z,26.35
2023-12-18T00:03:31.339Z,23.73
2023-12-18T00:05:58.774Z,24.00
2023-12-18T00:08:26.110Z,22.67
2023-12-18T00:10:53.762Z,29.95
2023-12-18T00:13:21.025Z,26.85
2023-12-18T00:15:48.426Z,23.55
2023-12-18T00:18:16.021Z,22.48
2023-12-18T00:20:43.389Z,23.42
2023-12-18T00:23:10.655Z,21.08
2023-12-18T00:25:39.473Z,22.83
2023-12-18T00:28:07.142Z,22.02
2023-12-18T00:30:34.659Z,22.58
2023-12-18T00:33:02.591Z,23.05
2023-12-18T00:35:29.867Z,23.10
2023-12-18T00:37:57.289Z,24.67
2023-12-18T00:40:24.532Z,23.00
2023-12-18T00:42:52.061Z,24.30
2023-12-18T00:45:19.402Z,22.50
2023-12-18T00:47:46.644Z,22.05
2023-12-18T00:50:14.145Z,21.77
2023-12-18T00:52:41.440Z,22.20
2023-12-18T00:55:09.006Z,23.42
2023-12-18T00:57:36.261Z,22.08
2023-12-18T01:00:03.968Z,22.23
2023-12-18T01:02:31.874Z,21.40
2023-12-18T01:04:59.311Z,24.45
2023-12-18T01:07:26.570Z,23.75
2023-12-18T01:09:57.654Z,22.77
2023-12-18T01:12:24.897Z,22.90
2023-12-18T01:14:52.297Z,23.67
2023-12-18T01:17:27.205Z,24.10
2023-12-18T01:22:27.212Z,21.48
2023-12-18T01:24:54.441Z,24.90
2023-12-18T01:27:21.680Z,23.15
2023-12-18T01:29:48.900Z,22.75
2023-12-18T01:32:16.158Z,22.35
2023-12-18T01:34:43.371Z,22.08
2023-12-18T01:37:10.603Z,22.10
2023-12-18T01:39:37.927Z,23.35
2023-12-18T01:42:05.449Z,22.38
2023-12-18T01:44:32.697Z,23.20
2023-12-18T01:47:00.052Z,22.90
2023-12-18T01:49:27.760Z,23.20
2023-12-18T01:51:55.212Z,21.80
2023-12-18T01:54:24.023Z,21.30
2023-12-18T01:56:56.065Z,23.25
2023-12-18T01:59:25.346Z,23.15
2023-12-18T02:01:53.339Z,23.00
2023-12-18T02:04:21.266Z,22.25
2023-12-18T02:06:50.059Z,21.83
2023-12-18T02:09:17.486Z,24.15
2023-12-18T02:11:48.574Z,21.27
2023-12-18T02:14:15.811Z,22.35
2023-12-18T02:16:43.081Z,21.60
2023-12-18T02:19:30.620Z,22.00
2023-12-18T02:21:59.189Z,21.63
2023-12-18T02:24:26.905Z,21.25
2023-12-18T02:26:56.161Z,21.15
2023-12-18T02:29:23.358Z,19.85
2023-12-18T02:31:50.622Z,20.25
2023-12-18T02:34:18.082Z,21.50
2023-12-18T02:36:45.481Z,20.08
2023-12-18T02:39:12.746Z,19.85
2023-12-18T02:41:40.244Z,20.25
2023-12-18T02:44:07.602Z,20.42
2023-12-18T02:46:34.872Z,20.63
2023-12-18T02:49:02.175Z,19.65
2023-12-18T02:51:29.428Z,21.02
2023-12-18T02:53:56.675Z,19.75
2023-12-18T02:56:24.700Z,20.77
2023-12-18T02:58:52.195Z,19.90
2023-12-18T03:01:19.605Z,20.00
2023-12-18T03:03:47.084Z,21.08
2023-12-18T03:06:14.497Z,20.95
2023-12-18T03:08:42.605Z,18.95
2023-12-18T03:11:10.947Z,20.38
2023-12-18T03:13:38.169Z,20.80
2023-12-18T03:16:05.813Z,20.35
2023-12-18T03:18:33.136Z,20.80
2023-12-18T03:21:00.561Z,20.48
2023-12-18T03:23:27.781Z,19.17
2023-12-18T03:25:55.090Z,17.95
2023-12-18T03:28:22.530Z,18.08
2023-12-18T03:30:49.804Z,18.20
2023-12-18T03:33:17.450Z,17.98
2023-12-18T03:35:44.713Z,17.40
2023-12-18T03:38:13.080Z,16.90
2023-12-18T03:43:25.838Z,15.95
2023-12-18T03:45:53.132Z,15.98
2023-12-18T03:48:21.171Z,17.08
2023-12-18T03:50:48.597Z,16.95
2023-12-18T03:53:15.859Z,16.55
2023-12-18T03:55:43.086Z,17.70
2023-12-18T03:58:10.416Z,18.17
2023-12-18T04:00:37.995Z,18.88
2023-12-18T04:03:06.078Z,18.88
2023-12-18T04:05:33.478Z,18.52
2023-12-18T04:08:01.122Z,18.00
2023-12-18T04:10:28.442Z,19.35
2023-12-18T04:12:55.767Z,19.65
2023-12-18T04:15:23.327Z,19.33
2023-12-18T04:17:50.949Z,19.33
2023-12-18T04:20:18.477Z,19.20
2023-12-18T04:22:45.734Z,19.02
2023-12-18T04:25:12.958Z,19.13
2023-12-18T04:27:40.542Z,18.67
2023-12-18T04:30:08.480Z,20.77
2023-12-18T04:32:35.837Z,21.48
2023-12-18T04:35:03.665Z,19.58
2023-12-18T04:37:30.988Z,19.73
2023-12-18T04:39:58.295Z,19.52
2023-12-18T04:42:25.686Z,19.52
2023-12-18T04:44:53.458Z,19.33
2023-12-18T04:47:20.721Z,20.50
2023-12-18T04:49:48.720Z,19.15
2023-12-18T04:52:15.992Z,19.65
2023-12-18T04:54:43.393Z,19.90
2023-12-18T04:59:55.431Z,20.52
2023-12-18T05:02:22.857Z,20.77
2023-12-18T05:04:50.395Z,18.83
2023-12-18T05:07:17.948Z,19.65
2023-12-18T05:09:48.235Z,18.77
2023-12-18T05:12:16.561Z,17.70
2023-12-18T05:14:43.819Z,19.27
2023-12-18T05:17:11.432Z,18.63
2023-12-18T05:19:38.795Z,19.52
2023-12-18T05:22:06.196Z,20.02
2023-12-18T05:24:33.511Z,19.20
2023-12-18T05:27:00.762Z,20.23
2023-12-18T05:29:28.002Z,20.13
2023-12-18T05:31:55.464Z,20.08
2023-12-18T05:34:22.809Z,19.88
2023-12-18T05:36:50.615Z,19.25
2023-12-18T05:39:17.926Z,18.27
2023-12-18T05:41:45.243Z,20.20
2023-12-18T05:44:12.480Z,19.40
2023-12-18T05:46:39.649Z,20.08
2023-12-18T05:49:07.784Z,18.65
2023-12-18T05:51:35.096Z,17.70
2023-12-18T05:54:02.676Z,17.90
2023-12-18T05:56:29.867Z,20.08
2023-12-18T05:58:58.842Z,18.33
2023-12-18T06:01:26.115Z,19.25
2023-12-18T06:03:53.473Z,18.42
2023-12-18T06:06:20.857Z,18.65
2023-12-18T06:08:48.141Z,18.95
2023-12-18T06:11:16.825Z,44.72
2023-12-18T06:13:44.267Z,33.42
2023-12-18T06:16:11.580Z,23.85
2023-12-18T06:18:39.299Z,21.67
2023-12-18T06:21:07.465Z,22.73
2023-12-18T06:23:34.877Z,69.57
2023-12-18T06:26:03.438Z,169.55
2023-12-18T06:28:31.214Z,121.35
2023-12-18T06:30:58.538Z,49.35
2023-12-18T06:33:26.146Z,32.50
2023-12-18T06:35:53.492Z,26.48
2023-12-18T06:38:20.826Z,24.27
2023-12-18T06:40:48.025Z,23.67
2023-12-18T06:43:15.269Z,22.15
2023-12-18T06:45:42.580Z,20.95
2023-12-18T06:48:09.974Z,20.90
2023-12-18T06:50:37.259Z,19.35
2023-12-18T06:53:04.597Z,19.88
2023-12-18T06:55:32.855Z,20.58
2023-12-18T06:58:00.079Z,21.52
2023-12-18T07:00:39.666Z,18.58
2023-12-18T07:03:09.048Z,17.55
2023-12-18T07:05:36.757Z,19.08
2023-12-18T07:08:04.368Z,18.35
2023-12-18T07:10:31.628Z,17.98
2023-12-18T07:12:58.908Z,17.60
2023-12-18T07:15:26.858Z,19.15
2023-12-18T07:17:54.519Z,18.63
2023-12-18T07:20:21.825Z,20.10
2023-12-18T07:22:49.214Z,19.85
2023-12-18T07:25:16.719Z,18.90
2023-12-18T07:27:46.068Z,17.60
2023-12-18T07:30:31.639Z,17.38
2023-12-18T07:32:59.112Z,17.75
2023-12-18T07:35:29.255Z,17.88
2023-12-18T07:37:56.586Z,18.58
2023-12-18T07:40:23.980Z,18.75
2023-12-18T07:42:51.294Z,21.85
2023-12-18T07:45:19.657Z,20.08
2023-12-18T07:47:46.950Z,22.45
2023-12-18T07:50:14.388Z,22.17
2023-12-18T07:52:41.855Z,20.15
2023-12-18T07:55:09.568Z,23.10
2023-12-18T07:57:36.931Z,20.70
2023-12-18T08:00:05.057Z,21.75
2023-12-18T08:02:32.352Z,21.55
2023-12-18T08:04:59.560Z,22.30
2023-12-18T08:07:26.757Z,22.00
2023-12-18T08:09:54.158Z,23.48
2023-12-18T08:12:21.513Z,22.42
2023-12-18T08:14:48.825Z,23.17
2023-12-18T08:17:16.621Z,22.98
2023-12-18T08:19:48.558Z,23.92
2023-12-18T08:22:16.423Z,27.63
2023-12-18T08:24:43.978Z,28.58
2023-12-18T08:27:11.359Z,24.92
2023-12-18T08:29:41.868Z,23.23
2023-12-18T08:34:36.772Z,22.77
2023-12-18T08:37:05.052Z,24.23
2023-12-18T08:39:32.513Z,25.00
2023-12-18T08:42:00.049Z,23.80
2023-12-18T08:44:27.317Z,24.35
2023-12-18T08:46:54.861Z,24.95
2023-12-18T08:49:22.340Z,24.42
2023-12-18T08:51:49.699Z,24.00
2023-12-18T08:54:17.056Z,24.67
2023-12-18T08:56:44.315Z,25.30
2023-12-18T08:59:12.398Z,24.80
2023-12-18T09:01:39.876Z,25.20
2023-12-18T09:04:08.157Z,25.27
2023-12-18T09:06:38.896Z,24.38
2023-12-18T09:09:06.808Z,26.52
2023-12-18T09:11:35.466Z,24.92
2023-12-18T09:14:04.813Z,23.67
2023-12-18T09:16:32.955Z,23.17
2023-12-18T09:19:00.777Z,23.83
2023-12-18T09:21:28.279Z,23.50
2023-12-18T09:23:55.574Z,23.48
2023-12-18T09:26:22.889Z,24.75
2023-12-18T09:28:50.294Z,26.45
2023-12-18T09:31:18.532Z,26.33
2023-12-18T09:33:46.816Z,23.20
2023-12-18T09:36:14.288Z,24.25
2023-12-18T09:38:42.058Z,21.77
2023-12-18T09:41:09.669Z,22.23
2023-12-18T09:43:37.307Z,22.30
2023-12-18T09:46:05.797Z,23.40
2023-12-18T09:48:33.754Z,23.45
2023-12-18T09:51:02.637Z,21.83
2023-12-18T09:53:29.988Z,23.15
2023-12-18T09:55:58.237Z,22.15
2023-12-18T09:58:25.710Z,24.13
2023-12-18T10:00:53.867Z,22.13
2023-12-18T10:03:21.356Z,21.48
2023-12-18T10:05:48.835Z,24.10
2023-12-18T10:08:16.320Z,25.27
2023-12-18T10:10:46.697Z,26.52
2023-12-18T10:13:15.377Z,28.00
2023-12-18T10:15:43.908Z,26.98
2023-12-18T10:18:12.088Z,28.55
2023-12-18T10:20:42.318Z,27.85
2023-12-18T10:23:09.678Z,29.33
2023-12-18T10:25:38.703Z,28.83
2023-12-18T10:28:07.577Z,28.77
2023-12-18T10:30:38.168Z,28.02
2023-12-18T10:35:40.635Z,27.30
2023-12-18T10:38:10.468Z,27.17
2023-12-18T10:40:39.125Z,27.60
2023-12-18T10:43:26.118Z,28.45
2023-12-18T10:45:55.457Z,29.90
2023-12-18T10:48:23.785Z,30.15
2023-12-18T10:50:53.292Z,28.60
2023-12-18T10:53:22.119Z,27.42
2023-12-18T10:55:50.522Z,27.50
2023-12-18T10:58:21.364Z,28.35
2023-12-18T11:00:50.639Z,27.40
2023-12-18T11:03:19.998Z,27.25
2023-12-18T11:05:50.455Z,27.40
2023-12-18T11:08:17.939Z,26.90
2023-12-18T11:10:46.352Z,27.40
2023-12-18T11:13:30.679Z,27.00
2023-12-18T11:16:18.420Z,27.33
2023-12-18T11:19:08.562Z,28.10
2023-12-18T11:21:43.381Z,30.20
2023-12-18T11:24:11.474Z,29.58
2023-12-18T11:26:39.554Z,31.13
2023-12-18T11:29:43.410Z,29.98
2023-12-18T11:32:45.134Z,26.75
2023-12-18T11:35:16.945Z,28.00
2023-12-18T11:37:50.484Z,27.35
2023-12-18T11:40:32.734Z,26.48
2023-12-18T11:43:00.452Z,24.92
2023-12-18T11:45:28.364Z,23.33
2023-12-18T11:48:02.210Z,23.25
2023-12-18T11:50:35.246Z,23.48
2023-12-18T11:53:06.788Z,20.85
2023-12-18T11:55:54.784Z,21.13
2023-12-18T11:58:26.958Z,23.38
2023-12-18T12:00:56.495Z,22.67
2023-12-18T12:03:23.907Z,22.13
2023-12-18T12:05:52.605Z,22.35
2023-12-18T12:08:20.106Z,21.13
2023-12-18T12:10:49.116Z,22.08
2023-12-18T12:13:20.945Z,20.98
2023-12-18T12:15:59.447Z,20.92
2023-12-18T12:18:31.969Z,21.40
2023-12-18T12:21:00.447Z,21.48
2023-12-18T12:23:28.774Z,21.17
2023-12-18T12:26:00.136Z,22.80
2023-12-18T12:28:30.894Z,22.90
2023-12-18T12:30:59.872Z,23.38
2023-12-18T12:33:39.643Z,23.58
2023-12-18T12:36:08.112Z,24.63
2023-12-18T12:38:41.216Z,24.85
2023-12-18T12:41:08.476Z,25.45
2023-12-18T12:43:35.736Z,26.17
2023-12-18T12:46:03.806Z,28.33
2023-12-18T12:48:32.847Z,29.00
2023-12-18T12:51:02.232Z,29.10
2023-12-18T12:53:32.036Z,28.75
2023-12-18T12:56:00.512Z,27.98
2023-12-18T12:58:34.779Z,32.10
2023-12-18T13:01:03.610Z,26.63
2023-12-18T13:03:31.737Z,28.20
2023-12-18T13:06:00.415Z,26.67
2023-12-18T13:08:27.696Z,26.83
2023-12-18T13:10:55.046Z,27.92
2023-12-18T13:13:22.514Z,27.05
2023-12-18T13:15:52.848Z,28.58
2023-12-18T13:18:20.373Z,26.70
2023-12-18T13:20:47.760Z,26.27
2023-12-18T13:23:15.772Z,28.48
2023-12-18T13:25:43.530Z,29.33
2023-12-18T13:28:11.119Z,27.27
2023-12-18T13:30:38.623Z,27.38
2023-12-18T13:33:06.098Z,30.08
2023-12-18T13:35:33.753Z,32.50
2023-12-18T13:38:01.258Z,34.78
2023-12-18T13:40:30.114Z,36.05
2023-12-18T13:42:57.572Z,45.28
2023-12-18T13:45:25.009Z,47.72
2023-12-18T13:47:53.353Z,38.80
2023-12-18T13:50:21.399Z,36.97
2023-12-18T13:52:50.048Z,37.83
2023-12-18T13:55:17.515Z,38.85
2023-12-18T13:57:48.846Z,39.33
2023-12-18T14:00:20.281Z,40.58
2023-12-18T14:02:49.449Z,41.83
2023-12-18T14:05:16.826Z,40.33
2023-12-18T14:07:44.370Z,40.78
2023-12-18T14:10:11.972Z,40.00
2023-12-18T14:12:39.321Z,39.55
2023-12-18T14:15:07.318Z,40.15
2023-12-18T14:17:34.836Z,43.05
2023-12-18T14:20:05.799Z,48.58
2023-12-18T14:22:34.418Z,40.58
2023-12-18T14:25:03.746Z,39.53
2023-12-18T14:27:33.659Z,40.05
2023-12-18T14:30:02.679Z,39.50
2023-12-18T14:32:29.967Z,37.80
2023-12-18T14:34:57.382Z,35.80
2023-12-18T14:37:24.948Z,36.63
2023-12-18T14:39:52.707Z,36.60
2023-12-18T14:42:20.004Z,36.55
2023-12-18T14:44:47.207Z,36.47
2023-12-18T14:47:14.509Z,37.22
2023-12-18T14:49:42.018Z,36.85
2023-12-18T14:52:09.486Z,37.47
2023-12-18T14:54:36.814Z,36.92
2023-12-18T14:57:04.457Z,38.33
2023-12-18T14:59:32.038Z,35.88
2023-12-18T15:02:00.815Z,37.65
2023-12-18T15:04:30.491Z,34.05
2023-12-18T15:06:59.610Z,36.47
2023-12-18T15:09:29.178Z,32.80
2023-12-18T15:11:57.096Z,31.67
2023-12-18T15:14:24.522Z,34.08
2023-12-18T15:16:51.814Z,36.33
2023-12-18T15:19:19.177Z,32.92
2023-12-18T15:21:46.507Z,32.17
2023-12-18T15:24:14.318Z,32.83
2023-12-18T15:26:41.661Z,33.67
2023-12-18T15:29:08.932Z,34.90
2023-12-18T15:31:36.565Z,33.58
2023-12-18T15:34:06.639Z,34.17
2023-12-18T15:36:34.783Z,34.53
2023-12-18T15:39:02.542Z,35.33
2023-12-18T15:41:32.526Z,33.70
2023-12-18T15:43:59.749Z,36.75
2023-12-18T15:46:27.058Z,34.65
2023-12-18T15:48:54.824Z,32.80
2023-12-18T15:51:22.392Z,35.10
2023-12-18T15:53:49.761Z,37.17
2023-12-18T15:56:17.166Z,39.08
2023-12-18T15:58:45.094Z,37.35
2023-12-18T16:01:15.675Z,35.85
2023-12-18T16:06:12.083Z,33.47
2023-12-18T16:08:39.576Z,35.55
2023-12-18T16:11:06.872Z,36.70
2023-12-18T16:13:34.171Z,37.05
2023-12-18T16:16:01.948Z,37.60
2023-12-18T16:18:29.619Z,35.78
2023-12-18T16:20:57.297Z,36.42
2023-12-18T16:23:24.534Z,37.65
2023-12-18T16:25:51.737Z,36.72
2023-12-18T16:28:19.143Z,35.22
2023-12-18T16:30:56.571Z,37.45
2023-12-18T16:33:25.726Z,43.72
2023-12-18T16:35:53.367Z,42.22
2023-12-18T16:38:20.953Z,41.67
2023-12-18T16:40:54.745Z,39.78
2023-12-18T16:43:24.997Z,41.60
2023-12-18T16:45:52.277Z,41.15
2023-12-18T16:48:19.748Z,41.50
2023-12-18T16:50:49.985Z,39.92
2023-12-18T16:53:17.274Z,40.70
2023-12-18T16:55:44.640Z,36.90
2023-12-18T16:58:11.899Z,37.53
2023-12-18T17:00:39.386Z,39.85
2023-12-18T17:03:06.909Z,38.25
2023-12-18T17:05:35.847Z,51.30
2023-12-18T17:08:04.269Z,88.22
2023-12-18T17:10:32.169Z,51.97
2023-12-18T17:12:59.501Z,46.22
2023-12-18T17:15:30.679Z,69.13
2023-12-18T17:17:58.471Z,102.95
2023-12-18T17:20:26.814Z,52.28
2023-12-18T17:22:54.323Z,41.95
2023-12-18T17:25:21.628Z,42.35
2023-12-18T17:27:49.404Z,44.95
2023-12-18T17:30:16.996Z,43.72
2023-12-18T17:32:44.545Z,56.10
2023-12-18T17:35:12.865Z,55.58
2023-12-18T17:37:40.059Z,50.03
2023-12-18T17:40:08.015Z,48.72
2023-12-18T17:42:35.316Z,46.92
2023-12-18T17:45:02.690Z,48.75
2023-12-18T17:47:34.513Z,47.00
2023-12-18T17:50:02.268Z,48.08
2023-12-18T17:52:29.847Z,50.67
2023-12-18T17:54:57.193Z,50.88
2023-12-18T17:57:24.487Z,50.67
2023-12-18T17:59:54.493Z,52.53
2023-12-18T18:02:23.782Z,52.38
2023-12-18T18:04:51.254Z,52.00
2023-12-18T18:07:18.805Z,49.15
2023-12-18T18:09:46.106Z,50.35
2023-12-18T18:12:14.216Z,52.00
2023-12-18T18:14:41.411Z,51.42
2023-12-18T18:17:08.694Z,55.97
2023-12-18T18:19:35.968Z,60.63
2023-12-18T18:22:04.724Z,60.63
2023-12-18T18:24:33.433Z,62.70
2023-12-18T18:27:08.912Z,57.55
2023-12-18T18:29:38.520Z,56.65
2023-12-18T18:32:06.971Z,52.53
2023-12-18T18:34:35.346Z,48.65
2023-12-18T18:37:02.861Z,48.72
2023-12-18T18:39:30.168Z,49.83
2023-12-18T18:41:57.408Z,52.75
2023-12-18T18:47:10.109Z,61.70
2023-12-18T18:49:37.392Z,61.45
2023-12-18T18:52:07.573Z,61.75
2023-12-18T18:57:19.668Z,57.60
2023-12-18T18:59:47.385Z,59.50
2023-12-18T19:02:15.715Z,65.40
2023-12-18T19:04:43.275Z,66.00
2023-12-18T19:07:10.823Z,63.38
2023-12-18T19:09:38.097Z,70.47
2023-12-18T19:12:05.581Z,67.35
2023-12-18T19:14:33.237Z,61.60
2023-12-18T19:17:05.221Z,61.63
2023-12-18T19:19:35.683Z,59.47
2023-12-18T19:22:03.619Z,67.97
2023-12-18T19:24:32.709Z,77.85
2023-12-18T19:27:00.023Z,76.72
2023-12-18T19:29:27.270Z,74.30
2023-12-18T19:31:55.595Z,74.60
2023-12-18T19:34:22.975Z,76.18
2023-12-18T19:36:50.561Z,78.70
2023-12-18T19:39:18.308Z,79.22
2023-12-18T19:41:45.608Z,76.63
2023-12-18T19:44:15.560Z,78.43
2023-12-18T19:46:42.853Z,76.00
2023-12-18T19:49:10.313Z,75.03
2023-12-18T19:51:39.300Z,76.53
2023-12-18T19:54:06.789Z,76.55
2023-12-18T19:56:34.172Z,77.97
2023-12-18T19:59:01.735Z,78.20
2023-12-18T20:01:29.118Z,82.13
2023-12-18T20:03:56.473Z,94.35
2023-12-18T20:06:25.169Z,85.47
2023-12-18T20:08:53.999Z,85.43
2023-12-18T20:11:21.430Z,83.38
2023-12-18T20:13:49.743Z,83.35
2023-12-18T20:16:17.333Z,85.75
2023-12-18T20:18:44.784Z,89.10
2023-12-18T20:21:12.167Z,93.55
2023-12-18T20:23:39.503Z,90.43
2023-12-18T20:26:07.564Z,83.85
2023-12-18T20:28:34.838Z,95.60
2023-12-18T20:31:03.191Z,86.45
2023-12-18T20:33:30.802Z,87.00
2023-12-18T20:35:58.331Z,86.72
2023-12-18T20:38:25.743Z,88.78
2023-12-18T20:40:53.003Z,96.53
2023-12-18T20:43:20.255Z,96.03
2023-12-18T20:45:51.347Z,97.07
2023-12-18T20:48:22.308Z,100.32
2023-12-18T20:50:52.779Z,121.47
2023-12-18T20:53:20.108Z,92.95
2023-12-18T20:55:47.614Z,80.57
2023-12-18T20:58:14.879Z,80.07
2023-12-18T21:00:42.445Z,80.03
2023-12-18T21:03:09.841Z,76.18
2023-12-18T21:05:37.600Z,71.55
2023-12-18T21:08:06.480Z,68.72
2023-12-18T21:10:34.454Z,61.78
2023-12-18T21:13:04.067Z,52.13
2023-12-18T21:15:31.392Z,57.20
2023-12-18T21:18:01.758Z,56.72
2023-12-18T21:20:29.412Z,55.65
2023-12-18T21:22:56.873Z,57.30
2023-12-18T21:25:24.160Z,55.28
2023-12-18T21:27:51.626Z,61.47
2023-12-18T21:30:19.312Z,62.10
2023-12-18T21:32:47.018Z,62.30
2023-12-18T21:35:14.725Z,59.97
2023-12-18T21:37:42.228Z,174.68
2023-12-18T21:40:09.979Z,89.53
2023-12-18T21:42:37.344Z,84.50
2023-12-18T21:45:06.131Z,66.40
2023-12-18T21:47:33.385Z,65.40
2023-12-18T21:50:00.848Z,62.47
2023-12-18T21:52:28.490Z,61.65
2023-12-18T21:54:57.025Z,63.83
2023-12-18T21:57:24.282Z,65.30
2023-12-18T21:59:51.613Z,65.88
2023-12-18T22:02:18.990Z,64.25
2023-12-18T22:04:46.306Z,65.03
2023-12-18T22:07:13.657Z,60.78
2023-12-18T22:09:40.962Z,55.97
2023-12-18T22:12:08.830Z,63.85
2023-12-18T22:14:36.176Z,65.95
2023-12-18T22:17:04.243Z,67.07
2023-12-18T22:19:32.106Z,64.18
2023-12-18T22:21:59.546Z,64.97
2023-12-18T22:24:27.181Z,68.43
2023-12-18T22:26:54.572Z,72.70
2023-12-18T22:29:21.791Z,69.28
2023-12-18T22:31:49.063Z,73.25
2023-12-18T22:34:16.515Z,73.68
2023-12-18T22:36:44.117Z,71.93
2023-12-18T22:39:12.171Z,72.32
2023-12-18T22:41:41.659Z,128.50
2023-12-18T22:44:09.597Z,126.97
2023-12-18T22:46:38.688Z,80.95
2023-12-18T22:49:06.194Z,73.22
2023-12-18T22:51:33.624Z,72.60
2023-12-18T22:54:00.977Z,66.07
2023-12-18T22:56:28.367Z,68.32
2023-12-18T22:58:56.212Z,68.32
2023-12-18T23:01:23.609Z,61.17
2023-12-18T23:03:51.184Z,60.95
2023-12-18T23:06:18.629Z,61.78
2023-12-18T23:08:46.317Z,60.85
2023-12-18T23:11:13.668Z,64.05
2023-12-18T23:13:42.243Z,62.20
2023-12-18T23:16:09.663Z,64.13
2023-12-18T23:18:37.077Z,62.72
2023-12-18T23:21:05.826Z,61.90
2023-12-18T23:23:33.671Z,60.95
2023-12-18T23:26:01.383Z,60.08
2023-12-18T23:28:29.832Z,59.97
2023-12-18T23:30:57.350Z,57.78
2023-12-18T23:33:30.682Z,57.13
2023-12-18T23:35:59.802Z,59.75
2023-12-18T23:38:27.560Z,107.50
2023-12-18T23:40:54.995Z,83.13
2023-12-18T23:43:22.294Z,77.00
2023-12-18T23:45:49.751Z,98.35
2023-12-18T23:48:17.714Z,78.97
2023-12-18T23:50:45.964Z,62.13
2023-12-18T23:53:13.966Z,56.10
2023-12-18T23:55:41.561Z,54.80
2023-12-18T23:58:08.838Z,55.53
